Time;durP1;ratioP1;P1;durP2;ratioP2;P2;SDS_P1;SDS_P2;PMS_P1;PMS_P2;Temp;Humidity;BMP_temperature;BMP_pressure;BME280_temperature;BME280_humidity;BME280_pressure;Samples;Min_cycle;Max_cycle;Signal;HPM_P1;HPM_P2
2021/01/08 00:00:21;;;;;;;7.85;7.05;;;5.60;99.90;;;;;;6004040;23;20173;-80
2021/01/08 00:03:23;;;;;;;;;;;;;;;;;;;;;
2021/01/08 00:06:48;;;;;;;8.38;7.55;;;5.60;99.90;;;;;;6004019;23;20189;-80
2021/01/08 00:09:47;;;;;;;7.88;7.00;;;5.60;99.90;;;;;;6002945;23;20185;-81
2021/01/08 00:12:35;;;;;;;8.77;7.97;;;5.60;99.90;;;;;;6008289;23;20162;-80
2021/01/08 00:15:13;;;;;;;8.77;7.88;;;5.60;99.90;;;;;;6004234;23;20198;-80
2021/01/08 00:18:04;;;;;;;7.50;6.72;;;5.60;99.90;;;;;;6002257;23;20195;-81
2021/01/08 00:21:01;;;;;;;9.35;8.35;;;5.50;99.90;;;;;;6002190;23;20162;-80
2021/01/08 00:24:03;;;;;;;10.45;8.77;;;5.50;99.90;;;;;;6026266;23;20158;-80
2021/01/08 00:26:59;;;;;;;8.80;7.88;;;5.50;99.90;;;;;;6003770;23;20174;-81
2021/01/08 00:29:43;;;;;;;10.07;9.05;;;5.50;99.90;;;;;;6001187;23;20251;-81
2021/01/08 00:32:22;;;;;;;10.68;8.43;;;5.50;99.90;;;;;;6003460;23;20157;-81
2021/01/08 00:35:52;;;;;;;9.85;8.85;;;5.50;99.90;;;;;;5978382;23;20623;-81
2021/01/08 00:38:31;;;;;;;10.77;9.73;;;5.40;99.90;;;;;;6007528;23;20150;-80
2021/01/08 00:41:06;;;;;;;9.50;8.60;;;5.40;99.90;;;;;;6007027;23;20134;-81
2021/01/08 00:43:51;;;;;;;10.05;8.85;;;5.40;99.90;;;;;;6122397;23;20163;-80
2021/01/08 00:46:19;;;;;;;13.02;9.63;;;5.40;99.90;;;;;;6123603;23;20167;-81
2021/01/08 00:49:29;;;;;;;8.98;7.95;;;5.40;99.90;;;;;;6126051;23;20174;-81
2021/01/08 00:52:10;;;;;;;7.95;7.15;;;5.30;99.90;;;;;;6122544;23;20201;-81
2021/01/08 00:54:37;;;;;;;8.57;7.70;;;5.30;99.90;;;;;;6122051;23;20183;-80
2021/01/08 00:57:23;;;;;;;8.32;7.55;;;5.30;99.90;;;;;;6121568;23;20620;-80
2021/01/08 00:59:49;;;;;;;9.05;8.15;;;5.30;99.90;;;;;;6146585;23;20154;-80
2021/01/08 01:02:15;;;;;;;8.03;7.20;;;5.30;99.90;;;;;;6123223;23;20474;-80
2021/01/08 01:04:41;;;;;;;8.60;6.90;;;5.30;99.90;;;;;;6125267;23;20226;-80
2021/01/08 01:07:06;;;;;;;8.93;8.03;;;5.30;99.90;;;;;;6100981;23;20241;-80
2021/01/08 01:09:33;;;;;;;11.00;8.70;;;5.20;99.90;;;;;;6124662;23;20214;-80
2021/01/08 01:11:59;;;;;;;8.20;7.40;;;5.20;99.90;;;;;;6121883;23;21207;-80
2021/01/08 01:14:24;;;;;;;9.20;8.23;;;5.20;99.90;;;;;;6121786;23;20171;-80
2021/01/08 01:16:50;;;;;;;8.97;8.07;;;5.20;99.90;;;;;;6097223;23;20174;-80
2021/01/08 01:19:16;;;;;;;8.57;7.77;;;5.10;99.90;;;;;;6121133;23;20159;-80
2021/01/08 01:21:41;;;;;;;9.13;8.23;;;5.10;99.90;;;;;;6123096;23;20147;-80
2021/01/08 01:24:08;;;;;;;8.40;7.57;;;5.10;99.90;;;;;;6122118;23;20482;-80
2021/01/08 01:26:33;;;;;;;7.20;6.50;;;5.10;99.90;;;;;;6128018;23;20181;-80
2021/01/08 01:28:59;;;;;;;7.33;6.63;;;5.10;99.90;;;;;;6122491;23;20257;-80
2021/01/08 01:31:25;;;;;;;7.70;7.00;;;5.10;99.90;;;;;;6121658;23;20528;-80
2021/01/08 01:33:51;;;;;;;8.33;7.07;;;5.10;99.90;;;;;;6121898;23;20551;-80
2021/01/08 01:36:17;;;;;;;7.50;6.63;;;5.10;99.90;;;;;;6123177;23;20170;-80
2021/01/08 01:38:42;;;;;;;8.65;7.85;;;5.10;99.90;;;;;;6096554;23;20155;-80
2021/01/08 01:41:08;;;;;;;7.60;6.47;;;5.10;99.90;;;;;;6121245;23;20200;-80
2021/01/08 01:43:37;;;;;;;7.30;6.35;;;5.10;99.90;;;;;;6121207;23;20846;-80
2021/01/08 01:46:03;;;;;;;8.15;7.35;;;5.10;99.90;;;;;;6121347;23;20171;-80
2021/01/08 01:48:29;;;;;;;7.45;6.68;;;5.10;99.90;;;;;;6127994;23;20175;-82
2021/01/08 01:50:55;;;;;;;8.65;7.10;;;5.10;99.90;;;;;;6122457;23;20493;-82
2021/01/08 01:53:22;;;;;;;7.60;6.80;;;5.10;99.90;;;;;;6121588;23;20163;-82
2021/01/08 01:55:49;;;;;;;7.18;6.47;;;5.10;99.90;;;;;;6122957;23;20568;-82
2021/01/08 01:58:17;;;;;;;7.82;7.13;;;5.10;99.90;;;;;;6122537;23;20286;-82
2021/01/08 02:00:43;;;;;;;7.45;6.35;;;5.10;99.90;;;;;;6121574;23;20170;-82
2021/01/08 02:03:23;;;;;;;8.27;7.37;;;5.10;99.90;;;;;;6103358;23;20159;-82
2021/01/08 02:05:57;;;;;;;6.13;5.53;;;5.10;99.90;;;;;;6122158;23;20254;-82
2021/01/08 02:08:25;;;;;;;6.63;6.00;;;5.10;99.90;;;;;;6123240;23;20170;-82
2021/01/08 02:11:02;;;;;;;5.80;5.30;;;5.10;99.90;;;;;;6123152;23;20143;-82
2021/01/08 02:14:06;;;;;;;6.90;6.10;;;5.00;99.90;;;;;;6125342;23;20158;-82
2021/01/08 02:16:35;;;;;;;5.50;5.00;;;5.10;99.90;;;;;;6077928;23;20516;-83
2021/01/08 02:19:04;;;;;;;7.28;6.57;;;5.10;99.90;;;;;;6122437;23;20174;-82
2021/01/08 02:21:55;;;;;;;5.78;5.15;;;5.10;99.90;;;;;;6121007;23;20167;-82
2021/01/08 02:24:30;;;;;;;6.32;5.72;;;5.00;99.90;;;;;;6121647;23;20158;-82
2021/01/08 02:26:57;;;;;;;5.35;4.85;;;5.10;99.90;;;;;;6123122;23;20598;-82
2021/01/08 02:29:24;;;;;;;5.80;5.25;;;5.00;99.90;;;;;;6122358;23;20179;-82
2021/01/08 02:31:50;;;;;;;5.10;4.65;;;5.00;99.90;;;;;;6122668;23;20155;-83
2021/01/08 02:34:17;;;;;;;6.03;5.50;;;5.00;99.90;;;;;;6121678;23;20219;-82
2021/01/08 02:36:45;;;;;;;6.40;5.78;;;5.00;99.90;;;;;;6122801;23;20177;-82
2021/01/08 02:39:12;;;;;;;5.57;5.05;;;5.00;99.90;;;;;;6123174;23;20147;-82
2021/01/08 02:41:41;;;;;;;6.43;5.72;;;5.00;99.90;;;;;;6135004;23;20151;-82
2021/01/08 02:44:08;;;;;;;5.82;5.32;;;5.00;99.90;;;;;;6135252;23;20150;-82
2021/01/08 02:46:34;;;;;;;5.97;5.47;;;5.00;99.90;;;;;;6129986;23;20240;-82
2021/01/08 02:49:00;;;;;;;6.03;5.53;;;5.00;99.90;;;;;;6114166;23;20178;-81
2021/01/08 02:51:29;;;;;;;6.88;6.18;;;5.00;99.90;;;;;;6168324;23;20158;-82
2021/01/08 02:53:58;;;;;;;4.85;4.35;;;5.00;99.90;;;;;;6166709;23;20146;-81
2021/01/08 02:56:32;;;;;;;6.03;5.53;;;5.00;99.90;;;;;;6125819;23;20293;-81
2021/01/08 02:58:59;;;;;;;5.47;4.97;;;4.90;99.90;;;;;;6152675;23;20193;-82
2021/01/08 03:01:26;;;;;;;5.20;4.70;;;4.90;99.90;;;;;;6126846;23;20162;-81
2021/01/08 03:03:52;;;;;;;4.70;4.30;;;4.90;99.90;;;;;;6127044;23;20225;-81
2021/01/08 03:06:18;;;;;;;6.75;6.05;;;4.90;99.90;;;;;;6125847;23;20696;-81
2021/01/08 03:08:44;;;;;;;6.40;5.18;;;4.80;99.90;;;;;;6126099;23;20743;-81
2021/01/08 03:11:11;;;;;;;4.80;4.33;;;4.80;99.90;;;;;;6152208;23;20174;-81
2021/01/08 03:13:38;;;;;;;9.65;5.70;;;4.80;99.90;;;;;;6152787;23;20525;-81
2021/01/08 03:16:05;;;;;;;5.50;5.05;;;4.80;99.90;;;;;;6126052;23;20197;-81
2021/01/08 03:18:31;;;;;;;5.20;4.72;;;4.80;99.90;;;;;;6157323;23;20146;-81
2021/01/08 03:20:57;;;;;;;5.33;4.87;;;4.80;99.90;;;;;;6125370;23;20708;-81
2021/01/08 03:23:23;;;;;;;6.60;6.00;;;4.80;99.90;;;;;;6125757;23;20158;-81
2021/01/08 03:25:48;;;;;;;6.50;5.90;;;4.80;99.90;;;;;;6153076;23;20558;-81
2021/01/08 03:28:17;;;;;;;5.93;5.43;;;4.70;99.90;;;;;;6151471;23;20569;-81
2021/01/08 03:30:43;;;;;;;5.82;5.28;;;4.70;99.90;;;;;;6100665;23;20916;-81
2021/01/08 03:33:09;;;;;;;5.07;4.50;;;4.70;99.90;;;;;;6125705;23;20209;-81
2021/01/08 03:35:34;;;;;;;5.67;5.17;;;4.70;99.90;;;;;;6152496;23;20562;-81
2021/01/08 03:38:00;;;;;;;5.67;5.00;;;4.70;99.90;;;;;;6157111;23;20530;-81
2021/01/08 03:40:26;;;;;;;6.57;5.27;;;4.70;99.90;;;;;;6155968;23;20142;-81
2021/01/08 03:42:52;;;;;;;6.50;5.80;;;4.70;99.90;;;;;;6055604;23;20195;-81
2021/01/08 03:45:18;;;;;;;5.53;5.03;;;4.70;99.90;;;;;;6015111;23;20527;-81
2021/01/08 03:47:44;;;;;;;5.60;5.10;;;4.70;99.90;;;;;;6017578;23;20606;-81
2021/01/08 03:50:10;;;;;;;6.60;6.00;;;4.70;99.90;;;;;;6026038;23;20550;-81
2021/01/08 03:52:36;;;;;;;7.40;6.75;;;4.80;99.90;;;;;;6022655;23;20526;-81
2021/01/08 03:55:02;;;;;;;7.27;6.60;;;4.80;99.90;;;;;;6019731;23;20146;-81
2021/01/08 03:57:28;;;;;;;8.00;7.20;;;4.80;99.90;;;;;;6016453;23;20624;-81
2021/01/08 03:59:54;;;;;;;7.10;6.50;;;4.80;99.90;;;;;;6017000;23;20158;-81
2021/01/08 04:02:20;;;;;;;7.10;6.50;;;4.80;99.90;;;;;;6008156;23;20156;-81
2021/01/08 04:04:45;;;;;;;6.50;5.80;;;4.80;99.90;;;;;;6004675;23;20150;-81
2021/01/08 04:07:11;;;;;;;6.93;6.27;;;4.80;99.90;;;;;;6003268;23;20628;-81
2021/01/08 04:09:37;;;;;;;7.33;6.63;;;4.80;99.90;;;;;;6003051;23;20662;-81
2021/01/08 04:12:06;;;;;;;6.95;6.35;;;4.80;99.90;;;;;;5978436;23;20791;-82
2021/01/08 04:14:31;;;;;;;6.60;6.00;;;4.80;99.90;;;;;;6002733;23;20150;-81
2021/01/08 04:16:57;;;;;;;6.50;5.90;;;4.80;99.90;;;;;;6002526;23;20590;-81
2021/01/08 04:19:26;;;;;;;8.32;7.55;;;4.80;99.90;;;;;;6001069;23;20162;-81
2021/01/08 04:21:51;;;;;;;6.93;6.33;;;4.80;99.90;;;;;;6002486;23;20240;-81
2021/01/08 04:24:17;;;;;;;7.20;6.50;;;4.80;99.90;;;;;;6012934;23;20512;-81
2021/01/08 04:26:43;;;;;;;7.07;6.47;;;4.80;99.90;;;;;;6006057;23;20720;-82
2021/01/08 04:29:09;;;;;;;5.97;5.40;;;4.80;99.90;;;;;;6002521;23;20181;-82
2021/01/08 04:31:34;;;;;;;7.73;7.03;;;4.80;99.90;;;;;;6009104;23;20146;-81
2021/01/08 04:34:00;;;;;;;6.73;6.13;;;4.80;99.90;;;;;;6004856;23;20233;-82
2021/01/08 04:36:27;;;;;;;7.28;6.57;;;4.80;99.90;;;;;;6004746;23;20220;-80
2021/01/08 04:38:53;;;;;;;6.67;6.07;;;4.80;99.90;;;;;;6001661;23;20565;-79
2021/01/08 04:41:19;;;;;;;6.87;6.20;;;4.80;99.90;;;;;;6003747;23;20158;-80
2021/01/08 04:43:45;;;;;;;5.80;5.18;;;4.80;99.90;;;;;;6148862;23;20620;-80
2021/01/08 04:46:29;;;;;;;7.23;6.50;;;4.80;99.90;;;;;;6126785;23;20181;-80
2021/01/08 04:49:01;;;;;;;6.32;5.72;;;4.80;99.90;;;;;;6150481;23;20562;-80
2021/01/08 04:51:30;;;;;;;5.93;5.43;;;4.80;99.90;;;;;;6153173;23;20203;-79
2021/01/08 04:53:56;;;;;;;7.07;5.30;;;4.80;99.90;;;;;;6127068;23;20154;-80
2021/01/08 04:56:25;;;;;;;7.85;6.72;;;4.90;99.90;;;;;;6126886;23;20253;-80
2021/01/08 04:58:51;;;;;;;7.57;6.88;;;4.90;99.90;;;;;;6152455;23;20154;-80
2021/01/08 05:01:18;;;;;;;6.38;5.78;;;4.80;99.90;;;;;;6152654;23;20202;-79
2021/01/08 05:03:44;;;;;;;7.28;6.45;;;4.80;99.90;;;;;;6078329;23;20158;-80
2021/01/08 05:06:10;;;;;;;6.60;6.00;;;4.80;99.90;;;;;;6153012;23;20167;-80
2021/01/08 05:08:36;;;;;;;6.43;5.83;;;4.80;99.90;;;;;;6127346;23;20486;-80
2021/01/08 05:11:27;;;;;;;5.73;5.23;;;4.80;99.90;;;;;;6126050;23;20605;-80
2021/01/08 05:13:56;;;;;;;6.15;5.40;;;4.80;99.90;;;;;;6152579;23;20135;-79
2021/01/08 05:16:27;;;;;;;6.40;5.75;;;4.80;99.90;;;;;;6126916;23;20181;-79
2021/01/08 05:18:55;;;;;;;5.90;5.35;;;4.80;99.90;;;;;;6152104;23;20150;-79
2021/01/08 05:21:25;;;;;;;6.45;5.53;;;4.70;99.90;;;;;;6126251;23;20177;-78
2021/01/08 05:23:55;;;;;;;4.80;4.20;;;4.70;99.90;;;;;;6152638;23;20162;-79
2021/01/08 05:26:23;;;;;;;5.07;4.57;;;4.70;99.90;;;;;;6125817;23;20178;-79
2021/01/08 05:28:55;;;;;;;5.88;5.10;;;4.70;99.90;;;;;;6151892;23;20174;-79
2021/01/08 05:31:26;;;;;;;8.50;5.53;;;4.70;99.90;;;;;;6152538;23;21096;-79
2021/01/08 05:33:53;;;;;;;5.63;5.05;;;4.70;99.90;;;;;;6127183;23;20139;-79
2021/01/08 05:36:21;;;;;;;6.45;4.82;;;4.70;99.90;;;;;;6153339;23;20167;-80
2021/01/08 05:38:49;;;;;;;5.65;5.03;;;4.70;99.90;;;;;;6152417;23;20146;-79
2021/01/08 05:41:16;;;;;;;5.25;4.75;;;4.70;99.90;;;;;;6152682;23;20146;-79
2021/01/08 05:43:44;;;;;;;4.45;4.03;;;4.70;99.90;;;;;;6152731;23;20170;-80
2021/01/08 05:46:24;;;;;;;4.68;4.28;;;4.70;99.90;;;;;;6130062;23;20226;-80
2021/01/08 05:48:52;;;;;;;5.47;4.97;;;4.70;99.90;;;;;;6152021;23;20232;-78
2021/01/08 05:51:23;;;;;;;5.43;4.68;;;4.70;99.90;;;;;;6126198;23;20143;-80
2021/01/08 05:53:51;;;;;;;6.80;5.68;;;4.70;99.90;;;;;;6126763;23;20147;-79
2021/01/08 05:56:20;;;;;;;4.80;4.35;;;4.70;99.90;;;;;;6152487;23;20552;-79
2021/01/08 05:58:48;;;;;;;4.32;3.92;;;4.70;99.90;;;;;;6151789;23;20146;-79
2021/01/08 06:01:15;;;;;;;5.00;4.60;;;4.70;99.90;;;;;;6125811;23;20201;-79
2021/01/08 06:03:42;;;;;;;4.95;4.47;;;4.70;99.90;;;;;;6152719;23;20150;-80
2021/01/08 06:06:09;;;;;;;4.47;4.07;;;4.70;99.90;;;;;;6152336;23;20324;-79
2021/01/08 06:08:41;;;;;;;5.15;4.32;;;4.70;99.90;;;;;;6125712;23;20516;-80
2021/01/08 06:11:09;;;;;;;5.20;4.70;;;4.70;99.90;;;;;;6152293;23;20146;-80
2021/01/08 06:13:35;;;;;;;5.82;5.22;;;4.70;99.90;;;;;;6152225;23;20150;-79
2021/01/08 06:16:03;;;;;;;5.67;4.20;;;4.70;99.90;;;;;;6126043;23;20158;-79
2021/01/08 06:18:33;;;;;;;4.47;4.05;;;4.70;99.90;;;;;;6125882;23;20161;-79
2021/01/08 06:21:07;;;;;;;5.30;4.47;;;4.70;99.90;;;;;;6126159;23;20515;-80
2021/01/08 06:23:40;;;;;;;5.10;4.13;;;4.70;99.90;;;;;;6106473;23;20157;-79
2021/01/08 06:26:27;;;;;;;5.45;4.50;;;4.70;99.90;;;;;;6152303;23;20174;-79
2021/01/08 06:29:00;;;;;;;4.80;4.00;;;4.70;99.90;;;;;;6125895;23;20228;-79
2021/01/08 06:31:55;;;;;;;4.65;4.20;;;4.70;99.90;;;;;;6152423;23;20130;-80
2021/01/08 06:34:26;;;;;;;5.13;4.32;;;4.70;99.90;;;;;;6149747;23;20154;-79
2021/01/08 06:37:08;;;;;;;4.55;4.03;;;4.70;99.90;;;;;;6152440;23;20170;-80
2021/01/08 06:39:36;;;;;;;5.32;4.82;;;4.70;99.90;;;;;;6076677;23;20161;-79
2021/01/08 06:42:02;;;;;;;5.25;4.75;;;4.70;99.90;;;;;;6124483;23;20162;-80
2021/01/08 06:44:30;;;;;;;4.47;4.07;;;4.70;99.90;;;;;;6150819;23;20153;-79
2021/01/08 06:46:58;;;;;;;5.68;3.53;;;4.70;99.90;;;;;;6151995;23;20170;-79
2021/01/08 06:49:25;;;;;;;3.55;3.25;;;4.70;99.90;;;;;;6100630;23;20178;-79
2021/01/08 06:51:51;;;;;;;4.80;4.35;;;4.80;99.90;;;;;;6151947;23;20174;-80
2021/01/08 06:54:17;;;;;;;5.20;4.80;;;4.80;99.90;;;;;;6126151;23;20147;-79
2021/01/08 06:56:44;;;;;;;4.37;3.97;;;4.80;99.90;;;;;;6137546;23;20654;-79
2021/01/08 06:59:16;;;;;;;5.30;4.35;;;4.80;99.90;;;;;;6154294;23;20818;-79
2021/01/08 07:02:03;;;;;;;4.30;4.00;;;4.80;99.90;;;;;;6128945;23;20529;-80
2021/01/08 07:04:32;;;;;;;4.82;4.32;;;4.80;99.90;;;;;;6101660;23;20663;-79
2021/01/08 07:07:01;;;;;;;3.80;3.50;;;4.80;99.90;;;;;;6125940;23;20225;-80
2021/01/08 07:09:35;;;;;;;4.60;4.15;;;4.80;99.90;;;;;;6151515;23;20253;-79
2021/01/08 07:12:02;;;;;;;4.00;3.70;;;4.80;99.90;;;;;;6125515;23;20580;-79
2021/01/08 07:14:28;;;;;;;4.50;4.10;;;4.90;99.90;;;;;;6100631;23;20221;-79
2021/01/08 07:16:56;;;;;;;6.00;5.40;;;4.90;99.90;;;;;;6125627;23;20166;-79
2021/01/08 07:19:24;;;;;;;4.43;3.90;;;4.90;99.90;;;;;;6125252;23;20601;-80
2021/01/08 07:21:52;;;;;;;5.53;4.45;;;4.90;99.90;;;;;;6152074;23;20153;-79
2021/01/08 07:24:23;;;;;;;5.28;4.80;;;4.90;99.90;;;;;;6125904;23;20205;-79
2021/01/08 07:26:49;;;;;;;5.15;4.70;;;4.90;99.90;;;;;;6125382;23;20178;-79
2021/01/08 07:29:27;;;;;;;4.90;4.40;;;5.00;99.90;;;;;;6150550;23;20265;-80
2021/01/08 07:31:56;;;;;;;5.75;5.22;;;5.00;99.90;;;;;;6125538;23;20130;-79
2021/01/08 07:34:35;;;;;;;5.68;4.85;;;5.00;99.90;;;;;;6151859;23;20147;-80
2021/01/08 07:37:02;;;;;;;5.20;4.70;;;5.00;99.90;;;;;;6152211;23;20431;-80
2021/01/08 07:39:42;;;;;;;6.07;5.47;;;5.00;99.90;;;;;;6129492;23;20174;-79
2021/01/08 07:42:31;;;;;;;5.25;4.80;;;5.00;99.90;;;;;;6100529;23;20158;-79
2021/01/08 07:44:57;;;;;;;5.22;4.72;;;5.00;99.90;;;;;;6151441;23;20173;-78
2021/01/08 07:47:24;;;;;;;4.80;4.40;;;5.00;99.90;;;;;;6151069;23;20171;-79
2021/01/08 07:50:11;;;;;;;4.93;4.53;;;5.00;99.90;;;;;;6151669;23;20572;-79
2021/01/08 07:52:46;;;;;;;4.28;3.88;;;5.00;99.90;;;;;;6151777;23;20150;-78
2021/01/08 07:55:33;;;;;;;4.80;4.35;;;5.10;99.90;;;;;;6152017;23;20588;-79
2021/01/08 07:58:05;;;;;;;4.65;4.25;;;5.00;99.90;;;;;;6126295;23;20197;-78
2021/01/08 08:00:32;;;;;;;5.05;4.65;;;5.00;99.90;;;;;;6126978;23;20540;-78
2021/01/08 08:03:01;;;;;;;4.00;3.70;;;5.00;99.90;;;;;;6154768;23;20178;-78
2021/01/08 08:05:31;;;;;;;5.60;4.30;;;5.00;99.90;;;;;;6127523;23;20157;-77
2021/01/08 08:08:02;;;;;;;5.50;5.00;;;5.10;99.90;;;;;;6152265;23;20734;-77
2021/01/08 08:10:29;;;;;;;5.80;4.10;;;5.10;99.90;;;;;;6152742;23;20150;-77
2021/01/08 08:12:55;;;;;;;4.85;4.35;;;5.10;99.90;;;;;;6152397;23;20135;-76
2021/01/08 08:15:23;;;;;;;5.82;5.07;;;5.10;99.90;;;;;;6155564;23;20588;-77
2021/01/08 08:17:49;;;;;;;5.47;4.97;;;5.10;99.90;;;;;;6153124;23;20194;-77
2021/01/08 08:20:22;;;;;;;4.93;4.53;;;5.10;99.90;;;;;;6127026;23;20212;-77
2021/01/08 08:22:50;;;;;;;5.40;4.90;;;5.20;99.90;;;;;;6152865;23;20134;-78
2021/01/08 08:25:22;;;;;;;4.43;4.05;;;5.20;99.90;;;;;;6126860;23;20535;-78
2021/01/08 08:27:55;;;;;;;5.40;4.90;;;5.20;99.90;;;;;;6152966;23;20189;-77
2021/01/08 08:30:22;;;;;;;7.00;5.18;;;5.20;99.90;;;;;;6153113;23;20146;-77
2021/01/08 08:32:48;;;;;;;5.85;5.20;;;5.20;99.90;;;;;;6153629;23;20469;-77
2021/01/08 08:35:15;;;;;;;5.40;4.90;;;5.20;99.90;;;;;;6127527;23;20146;-77
2021/01/08 08:37:56;;;;;;;5.45;5.05;;;5.20;99.90;;;;;;6152847;23;20257;-77
2021/01/08 08:40:27;;;;;;;6.25;5.65;;;5.20;99.90;;;;;;6102324;23;20184;-77
2021/01/08 08:43:02;;;;;;;6.30;5.70;;;5.20;99.90;;;;;;6047976;23;20169;-78
2021/01/08 08:45:33;;;;;;;6.20;5.60;;;5.20;99.90;;;;;;6004435;23;20468;-77
2021/01/08 08:48:06;;;;;;;7.30;6.55;;;5.20;99.90;;;;;;6004308;23;20176;-77
2021/01/08 08:50:33;;;;;;;7.13;6.45;;;5.20;99.90;;;;;;6003897;23;20146;-77
2021/01/08 08:53:15;;;;;;;9.10;8.30;;;5.20;99.90;;;;;;6006321;23;20146;-77
2021/01/08 08:55:41;;;;;;;6.65;6.05;;;5.20;99.90;;;;;;6002803;23;20153;-77
2021/01/08 08:58:10;;;;;;;7.70;6.20;;;5.30;99.90;;;;;;6128162;23;20154;-77
2021/01/08 09:00:39;;;;;;;8.07;7.38;;;5.30;99.90;;;;;;6005637;23;20153;-77
2021/01/08 09:03:22;;;;;;;8.23;7.38;;;5.30;99.90;;;;;;6026979;23;20499;-78
2021/01/08 09:05:52;;;;;;;9.18;8.20;;;5.30;99.90;;;;;;6003119;23;20651;-77
2021/01/08 09:08:39;;;;;;;8.43;7.63;;;5.40;99.90;;;;;;6003708;23;20185;-78
2021/01/08 09:11:33;;;;;;;8.70;7.90;;;5.40;99.90;;;;;;6002735;23;20569;-77
2021/01/08 09:14:00;;;;;;;8.07;7.28;;;5.40;99.90;;;;;;6004362;23;20166;-77
2021/01/08 09:16:46;;;;;;;8.00;7.22;;;5.40;99.90;;;;;;6005099;23;20173;-77
2021/01/08 09:19:21;;;;;;;8.25;7.45;;;5.40;99.90;;;;;;6005446;23;20161;-78
2021/01/08 09:21:48;;;;;;;7.68;6.97;;;5.40;99.90;;;;;;5987004;23;20153;-78
2021/01/08 09:24:30;;;;;;;10.05;8.40;;;5.50;99.90;;;;;;6013823;23;20154;-78
2021/01/08 09:27:03;;;;;;;9.25;7.97;;;5.50;99.90;;;;;;6014870;23;20217;-78
2021/01/08 09:29:30;;;;;;;8.35;7.55;;;5.50;99.90;;;;;;6016787;23;20165;-77
2021/01/08 09:31:57;;;;;;;7.32;6.60;;;5.60;99.90;;;;;;6015962;23;20146;-78
2021/01/08 09:34:25;;;;;;;8.45;7.65;;;5.60;99.90;;;;;;6015203;23;20176;-78
2021/01/08 09:36:54;;;;;;;8.85;7.95;;;5.60;99.90;;;;;;6015179;23;20169;-78
2021/01/08 09:39:22;;;;;;;8.20;7.40;;;5.70;99.90;;;;;;6015588;23;20161;-78
2021/01/08 09:41:59;;;;;;;8.18;7.47;;;5.80;99.90;;;;;;6045075;23;20261;-78
2021/01/08 09:44:36;;;;;;;7.95;7.25;;;5.80;99.90;;;;;;6160616;23;20149;-77
2021/01/08 09:47:37;;;;;;;6.75;6.05;;;5.90;99.90;;;;;;6143908;23;20263;-79
2021/01/08 09:50:03;;;;;;;7.43;6.72;;;5.90;99.90;;;;;;6144027;23;20160;-80
2021/01/08 09:52:29;;;;;;;7.90;7.10;;;6.00;99.90;;;;;;6140061;23;20177;-79
2021/01/08 09:54:55;;;;;;;9.90;8.80;;;6.00;99.90;;;;;;6168909;23;20146;-85
2021/01/08 09:57:35;;;;;;;8.80;7.90;;;6.00;99.90;;;;;;6130651;23;20612;-79
2021/01/08 10:00:04;;;;;;;10.18;9.07;;;6.10;99.90;;;;;;6154188;23;20494;-80
2021/01/08 10:02:46;;;;;;;9.30;8.40;;;6.10;99.90;;;;;;6153143;23;20469;-78
2021/01/08 10:05:34;;;;;;;8.63;7.80;;;6.20;99.90;;;;;;6151668;23;20154;-77
2021/01/08 10:08:02;;;;;;;9.07;7.93;;;6.20;99.90;;;;;;6129828;23;20170;-77
2021/01/08 10:10:28;;;;;;;8.23;7.38;;;6.30;99.90;;;;;;6126509;23;20153;-77
2021/01/08 10:12:55;;;;;;;9.40;8.07;;;6.40;99.90;;;;;;6126486;23;20636;-77
2021/01/08 10:15:37;;;;;;;8.75;7.95;;;6.40;99.90;;;;;;6126648;23;20147;-77
2021/01/08 10:18:12;;;;;;;8.43;7.57;;;6.40;99.90;;;;;;6125884;23;20142;-78
2021/01/08 10:20:47;;;;;;;7.20;6.50;;;6.40;99.90;;;;;;6125718;23;20204;-77
2021/01/08 10:23:18;;;;;;;6.78;5.97;;;6.40;99.90;;;;;;6126431;23;20141;-77
2021/01/08 10:25:45;;;;;;;6.20;5.60;;;6.40;99.90;;;;;;6101591;23;20216;-76
2021/01/08 10:28:15;;;;;;;6.00;5.40;;;6.50;99.90;;;;;;6126700;23;20174;-77
2021/01/08 10:30:42;;;;;;;6.85;6.15;;;6.50;99.90;;;;;;6102061;23;20142;-76
2021/01/08 10:33:08;;;;;;;8.02;7.22;;;6.40;99.90;;;;;;6126372;23;20146;-76
2021/01/08 10:35:35;;;;;;;9.45;8.45;;;6.40;99.90;;;;;;6152176;23;20169;-76
2021/01/08 10:38:01;;;;;;;7.55;6.85;;;6.50;99.90;;;;;;6126111;23;20159;-76
2021/01/08 10:40:27;;;;;;;8.70;7.60;;;6.40;99.90;;;;;;6151916;23;20146;-77
2021/01/08 10:42:53;;;;;;;10.30;7.80;;;6.50;99.90;;;;;;6047422;23;20558;-76
2021/01/08 10:45:20;;;;;;;13.15;9.77;;;6.40;99.90;;;;;;6004349;23;20581;-77
2021/01/08 10:47:47;;;;;;;10.25;8.68;;;6.40;99.90;;;;;;6001243;23;20173;-77
2021/01/08 10:50:14;;;;;;;11.23;8.30;;;6.40;99.90;;;;;;6000858;23;20782;-77
2021/01/08 10:52:41;;;;;;;11.13;9.15;;;6.40;99.90;;;;;;5978603;23;20193;-77
2021/01/08 10:55:09;;;;;;;9.52;7.85;;;6.40;99.90;;;;;;6003881;23;20149;-77
2021/01/08 10:57:35;;;;;;;10.20;8.45;;;6.40;99.90;;;;;;5978037;23;20174;-77
2021/01/08 11:00:07;;;;;;;12.15;9.70;;;6.40;99.90;;;;;;6003226;23;20165;-77
2021/01/08 11:02:34;;;;;;;11.25;9.65;;;6.40;99.90;;;;;;6001169;23;20142;-77
2021/01/08 11:05:00;;;;;;;11.93;10.63;;;6.40;99.90;;;;;;6003295;23;20456;-77
2021/01/08 11:07:31;;;;;;;14.18;10.77;;;6.40;99.90;;;;;;6001087;23;20621;-77
2021/01/08 11:09:57;;;;;;;13.32;10.38;;;6.50;99.90;;;;;;6024625;23;20193;-77
2021/01/08 11:12:23;;;;;;;10.60;9.17;;;6.50;99.90;;;;;;6001639;23;20154;-77
2021/01/08 11:14:49;;;;;;;11.13;9.70;;;6.50;99.90;;;;;;6003537;23;20527;-77
2021/01/08 11:17:15;;;;;;;11.70;9.18;;;6.50;99.90;;;;;;6002364;23;20643;-78
2021/01/08 11:19:41;;;;;;;11.57;10.00;;;6.50;99.90;;;;;;6003341;23;20157;-77
2021/01/08 11:22:07;;;;;;;10.17;8.73;;;6.50;99.90;;;;;;6007364;23;20558;-77
2021/01/08 11:24:33;;;;;;;11.63;9.55;;;6.50;99.90;;;;;;6001643;23;20165;-77
2021/01/08 11:26:59;;;;;;;12.33;10.97;;;6.50;99.90;;;;;;6003139;23;20173;-77
2021/01/08 11:29:25;;;;;;;11.60;9.63;;;6.50;99.90;;;;;;6001363;23;20180;-77
2021/01/08 11:31:50;;;;;;;10.10;8.80;;;6.50;99.90;;;;;;6003601;23;20273;-78
2021/01/08 11:34:16;;;;;;;13.40;10.00;;;6.50;99.90;;;;;;6006550;23;20146;-78
2021/01/08 11:36:42;;;;;;;10.50;9.40;;;6.50;99.90;;;;;;6006758;23;20568;-77
2021/01/08 11:39:08;;;;;;;11.70;8.80;;;6.50;99.90;;;;;;6004881;23;20149;-79
2021/01/08 11:41:34;;;;;;;15.30;10.13;;;6.50;99.90;;;;;;6017603;23;20996;-78
2021/01/08 11:44:00;;;;;;;12.13;10.37;;;6.60;99.90;;;;;;6155580;23;20517;-78
2021/01/08 11:46:28;;;;;;;12.80;9.65;;;6.60;99.90;;;;;;6155048;23;20176;-78
2021/01/08 11:48:54;;;;;;;13.77;10.77;;;6.60;99.90;;;;;;6126652;23;20186;-80
2021/01/08 11:51:20;;;;;;;13.43;10.77;;;6.60;99.90;;;;;;6154618;23;20495;-79
2021/01/08 11:53:47;;;;;;;9.73;8.30;;;6.60;99.90;;;;;;6128659;23;20608;-78
2021/01/08 11:56:14;;;;;;;11.25;8.43;;;6.60;99.90;;;;;;6128711;23;20564;-77
2021/01/08 11:58:44;;;;;;;15.40;11.93;;;6.60;99.90;;;;;;6159229;23;20670;-79
2021/01/08 12:01:11;;;;;;;11.15;9.60;;;6.60;99.90;;;;;;6128442;23;20472;-77
2021/01/08 12:03:39;;;;;;;10.90;8.70;;;6.60;99.90;;;;;;6154685;23;20752;-77
2021/01/08 12:06:05;;;;;;;9.45;7.88;;;6.60;99.90;;;;;;6153470;23;20177;-77
2021/01/08 12:08:36;;;;;;;9.70;7.35;;;6.70;99.90;;;;;;6128060;23;20236;-77
2021/01/08 12:11:02;;;;;;;7.10;6.40;;;6.60;99.90;;;;;;6154262;23;20139;-76
2021/01/08 12:13:28;;;;;;;8.82;7.43;;;6.60;99.90;;;;;;6154789;23;20153;-76
2021/01/08 12:15:54;;;;;;;7.90;7.10;;;6.60;99.90;;;;;;6128282;23;20158;-76
2021/01/08 12:18:26;;;;;;;7.13;6.43;;;6.60;99.90;;;;;;6153763;23;20152;-76
2021/01/08 12:20:58;;;;;;;7.03;6.43;;;6.60;99.90;;;;;;6154786;23;20529;-76
2021/01/08 12:23:24;;;;;;;6.10;5.50;;;6.50;99.90;;;;;;6128331;23;20197;-76
2021/01/08 12:25:50;;;;;;;6.77;5.83;;;6.50;99.90;;;;;;6128090;23;20166;-78
2021/01/08 12:28:15;;;;;;;8.30;5.33;;;6.60;99.90;;;;;;6126749;23;20680;-75
2021/01/08 12:30:43;;;;;;;6.60;5.90;;;6.50;99.90;;;;;;6127860;23;20234;-76
2021/01/08 12:33:09;;;;;;;10.32;9.30;;;6.50;99.90;;;;;;6153542;23;20697;-75
2021/01/08 12:35:35;;;;;;;9.83;8.53;;;6.50;99.90;;;;;;6158477;23;20154;-76
2021/01/08 12:38:01;;;;;;;8.73;7.67;;;6.50;99.90;;;;;;6154159;23;20842;-75
2021/01/08 12:40:30;;;;;;;10.40;8.25;;;6.50;99.90;;;;;;6153646;23;20150;-75
2021/01/08 12:42:55;;;;;;;9.03;8.07;;;6.60;99.90;;;;;;6126835;23;20615;-76
2021/01/08 12:45:25;;;;;;;11.02;9.75;;;6.60;99.90;;;;;;6153581;23;21023;-75
2021/01/08 12:47:51;;;;;;;12.93;11.57;;;6.60;99.90;;;;;;6153386;23;20174;-76
2021/01/08 12:50:20;;;;;;;13.85;11.05;;;6.60;99.90;;;;;;6152514;23;20530;-76
2021/01/08 12:52:46;;;;;;;16.50;14.30;;;6.60;99.90;;;;;;6152106;23;21244;-76
2021/01/08 12:55:12;;;;;;;13.88;12.25;;;6.50;99.90;;;;;;6127228;23;20396;-76
2021/01/08 12:57:38;;;;;;;11.55;9.90;;;6.60;99.90;;;;;;6152655;23;20167;-76
2021/01/08 13:00:06;;;;;;;11.10;9.40;;;6.60;99.90;;;;;;6152976;23;20147;-76
2021/01/08 13:02:32;;;;;;;11.20;8.93;;;6.60;99.90;;;;;;6127282;23;20151;-76
2021/01/08 13:04:58;;;;;;;8.73;7.83;;;6.70;99.90;;;;;;6153705;23;20254;-76
2021/01/08 13:07:24;;;;;;;6.73;6.07;;;6.70;99.90;;;;;;6152622;23;20893;-76
2021/01/08 13:09:50;;;;;;;8.07;7.27;;;6.70;99.90;;;;;;6153410;23;20167;-76
2021/01/08 13:12:15;;;;;;;11.90;7.50;;;6.70;99.90;;;;;;6153781;23;21279;-76